createdAt,value
2019-01-20T08:40:47.987Z,97175.00
2019-01-20T08:43:41.229Z,97183.00
2019-01-20T08:46:42.603Z,97183.00
2019-01-20T08:49:35.346Z,97183.00
2019-01-20T08:52:28.491Z,97187.00
2019-01-20T08:55:21.232Z,97187.00
2019-01-20T08:58:14.616Z,97185.00
2019-01-20T09:01:07.576Z,97178.00
2019-01-20T09:04:00.526Z,97182.00
2019-01-20T09:06:53.807Z,97182.00
2019-01-20T09:09:47.200Z,97183.00
2019-01-20T09:12:40.600Z,97185.00
2019-01-20T09:15:33.371Z,97183.00
2019-01-20T09:18:26.436Z,97182.00
2019-01-20T09:21:19.604Z,97183.00
2019-01-20T09:24:12.890Z,97193.00
2019-01-20T09:27:05.768Z,97201.00
2019-01-20T09:29:58.749Z,97191.00
2019-01-20T09:33:02.680Z,97196.00
2019-01-20T09:36:04.769Z,97189.00
2019-01-20T09:38:58.102Z,97191.00
2019-01-20T09:41:53.859Z,97191.00
2019-01-20T09:44:46.928Z,97191.00
2019-01-20T09:47:40.834Z,97185.00
2019-01-20T09:50:33.754Z,97197.00
2019-01-20T09:53:27.083Z,97192.00
2019-01-20T09:56:20.632Z,97188.00
2019-01-20T09:59:26.021Z,97187.00
2019-01-20T10:02:19.056Z,97186.00
2019-01-20T10:05:36.733Z,97190.00
2019-01-20T10:08:46.407Z,97189.00
2019-01-20T10:11:51.269Z,97182.00
2019-01-20T10:14:47.131Z,97188.00
2019-01-20T10:17:51.731Z,97184.00
2019-01-20T10:20:44.640Z,97181.00
2019-01-20T10:23:37.572Z,97182.00
2019-01-20T10:26:30.837Z,97183.00
2019-01-20T10:29:24.229Z,97175.00
2019-01-20T10:32:17.644Z,97177.00
2019-01-20T10:35:10.626Z,97181.00
2019-01-20T10:38:05.882Z,97177.00
2019-01-20T10:40:58.579Z,97176.00
2019-01-20T10:43:51.814Z,97178.00
2019-01-20T10:46:44.942Z,97186.00
2019-01-20T10:49:37.988Z,97183.00
2019-01-20T10:52:30.849Z,97182.00
2019-01-20T10:55:24.015Z,97175.00
2019-01-20T10:58:17.238Z,97182.00
2019-01-20T11:01:10.846Z,97183.00
2019-01-20T11:04:03.906Z,97177.00
2019-01-20T11:06:57.106Z,97180.00
2019-01-20T11:09:50.155Z,97182.00
2019-01-20T11:12:43.394Z,97180.00
2019-01-20T11:15:36.321Z,97181.00
2019-01-20T11:18:29.305Z,97179.00
2019-01-20T11:21:22.508Z,97182.00
2019-01-20T11:24:15.836Z,97181.00
2019-01-20T11:27:08.688Z,97178.00
2019-01-20T11:30:01.457Z,97175.00
2019-01-20T11:32:54.788Z,97177.00
2019-01-20T11:35:48.140Z,97169.00
2019-01-20T11:38:41.421Z,97171.00
2019-01-20T11:41:34.192Z,97166.00
2019-01-20T11:44:27.237Z,97172.00
2019-01-20T11:47:20.254Z,97178.00
2019-01-20T11:50:13.892Z,97168.00
2019-01-20T11:53:06.907Z,97165.00
2019-01-20T11:56:00.089Z,97168.00
2019-01-20T11:58:53.101Z,97169.00
2019-01-20T12:01:46.290Z,97164.00
2019-01-20T12:04:39.554Z,97162.00
2019-01-20T12:07:32.615Z,97160.00
2019-01-20T12:10:26.085Z,97158.00
2019-01-20T12:13:20.802Z,97161.00
2019-01-20T12:16:14.210Z,97166.00
2019-01-20T12:19:07.227Z,97159.00
2019-01-20T12:22:00.444Z,97156.00
2019-01-20T12:24:53.675Z,97151.00
2019-01-20T12:27:46.267Z,97156.00
2019-01-20T12:30:40.291Z,97161.00
2019-01-20T12:33:33.424Z,97168.00
2019-01-20T12:36:26.705Z,97153.00
2019-01-20T12:39:20.250Z,97165.00
2019-01-20T12:42:15.012Z,97166.00
2019-01-20T12:45:08.623Z,97171.00
2019-01-20T12:48:01.840Z,97165.00
2019-01-20T12:50:55.139Z,97158.00
2019-01-20T12:53:48.090Z,97164.00
2019-01-20T12:56:41.292Z,97166.00
2019-01-20T12:59:34.476Z,97168.00
2019-01-20T13:02:27.617Z,97159.00
2019-01-20T13:05:20.401Z,97163.00
2019-01-20T13:08:13.613Z,97158.00
2019-01-20T13:12:54.951Z,97160.00
2019-01-20T13:15:48.532Z,97187.00
2019-01-20T13:18:41.911Z,97175.00
2019-01-20T13:21:35.056Z,97168.00
2019-01-20T13:24:28.291Z,97167.00
2019-01-20T13:27:21.171Z,97167.00
2019-01-20T13:30:17.982Z,97175.00
2019-01-20T13:33:11.285Z,97178.00
2019-01-20T13:36:07.255Z,97169.00
2019-01-20T13:38:58.987Z,97171.00
2019-01-20T13:41:52.284Z,97175.00
2019-01-20T13:44:46.343Z,97173.00
2019-01-20T13:47:39.412Z,97179.00
2019-01-20T13:50:32.482Z,97183.00
2019-01-20T13:53:25.440Z,97180.00
2019-01-20T13:56:18.647Z,97170.00
2019-01-20T13:59:11.664Z,97175.00
2019-01-20T14:02:04.841Z,97173.00
2019-01-20T14:04:57.962Z,97175.00
2019-01-20T14:07:51.402Z,97178.00
2019-01-20T14:10:44.143Z,97164.00
2019-01-20T14:13:37.461Z,97171.00
2019-01-20T14:16:30.445Z,97174.00
2019-01-20T14:19:23.474Z,97174.00
2019-01-20T14:22:16.275Z,97173.00
2019-01-20T14:25:16.447Z,97177.00
2019-01-20T14:28:09.672Z,97181.00
2019-01-20T14:31:02.820Z,97186.00
2019-01-20T14:33:55.935Z,97189.00
2019-01-20T14:36:48.905Z,97192.00
2019-01-20T14:39:42.212Z,97186.00
2019-01-20T14:42:35.088Z,97193.00
2019-01-20T14:45:28.022Z,97189.00
2019-01-20T14:48:21.146Z,97202.00
2019-01-20T14:51:14.343Z,97198.00
2019-01-20T14:54:06.837Z,97207.00
2019-01-20T14:56:59.776Z,97209.00
2019-01-20T14:59:52.991Z,97212.00
2019-01-20T15:02:46.304Z,97208.00
2019-01-20T15:05:39.522Z,97211.00
2019-01-20T15:08:32.704Z,97219.00
2019-01-20T15:11:26.079Z,97210.00
2019-01-20T15:14:19.445Z,97214.00
2019-01-20T15:17:12.436Z,97217.00
2019-01-20T15:20:10.186Z,97216.00
2019-01-20T15:23:03.111Z,97215.00
2019-01-20T15:25:56.087Z,97216.00
2019-01-20T15:28:49.235Z,97216.00
2019-01-20T15:31:42.517Z,97204.00
2019-01-20T15:34:35.592Z,97213.00
2019-01-20T15:37:28.930Z,97215.00
2019-01-20T15:40:23.830Z,97215.00
2019-01-20T15:43:16.508Z,97225.00
2019-01-20T15:46:09.696Z,97225.00
2019-01-20T15:49:02.455Z,97220.00
2019-01-20T15:51:55.502Z,97224.00
2019-01-20T15:54:48.658Z,97225.00
2019-01-20T15:57:41.683Z,97231.00
2019-01-20T16:00:34.717Z,97232.00
2019-01-20T16:03:28.144Z,97234.00
2019-01-20T16:06:21.499Z,97240.00
2019-01-20T16:09:14.315Z,97235.00
2019-01-20T16:12:07.596Z,97238.00
2019-01-20T16:15:00.842Z,97243.00
2019-01-20T16:17:55.490Z,97245.00
2019-01-20T16:20:48.487Z,97252.00
2019-01-20T16:23:41.648Z,97253.00
2019-01-20T16:26:34.644Z,97247.00
2019-01-20T16:29:27.564Z,97249.00
2019-01-20T16:32:20.276Z,97249.00
2019-01-20T16:35:14.842Z,97258.00
2019-01-20T16:38:08.329Z,97259.00
2019-01-20T16:41:01.600Z,97264.00
2019-01-20T16:43:54.838Z,97269.00
2019-01-20T16:46:47.936Z,97267.00
2019-01-20T16:49:40.965Z,97269.00
2019-01-20T16:52:34.313Z,97260.00
2019-01-20T16:55:27.664Z,97273.00
2019-01-20T16:58:20.923Z,97274.00
2019-01-20T17:01:13.645Z,97277.00
2019-01-20T17:04:06.715Z,97276.00
2019-01-20T17:06:59.270Z,97275.00
2019-01-20T17:09:52.755Z,97271.00
2019-01-20T17:12:45.750Z,97287.00
2019-01-20T17:15:42.009Z,97274.00
2019-01-20T17:18:35.079Z,97277.00
2019-01-20T17:21:28.319Z,97290.00
2019-01-20T17:24:22.062Z,97286.00
2019-01-20T17:27:15.308Z,97294.00
2019-01-20T17:30:12.999Z,97295.00
2019-01-20T17:33:09.310Z,97292.00
2019-01-20T17:36:09.890Z,97305.00
2019-01-20T17:39:03.935Z,97304.00
2019-01-20T17:41:56.923Z,97303.00
2019-01-20T17:44:49.828Z,97319.00
2019-01-20T17:47:42.973Z,97313.00
2019-01-20T17:50:39.550Z,97307.00
2019-01-20T17:53:32.431Z,97317.00
2019-01-20T17:56:25.333Z,97312.00
2019-01-20T17:59:18.322Z,97316.00
2019-01-20T18:02:11.319Z,97321.00
2019-01-20T18:05:08.460Z,97314.00
2019-01-20T18:08:01.897Z,97328.00
2019-01-20T18:10:54.883Z,97331.00
2019-01-20T18:13:47.943Z,97329.00
2019-01-20T18:16:40.917Z,97331.00
2019-01-20T18:19:35.168Z,97333.00
2019-01-20T18:22:28.338Z,97340.00
2019-01-20T18:25:22.338Z,97339.00
2019-01-20T18:28:15.615Z,97342.00
2019-01-20T18:31:08.843Z,97347.00
2019-01-20T18:34:01.828Z,97338.00
2019-01-20T18:36:55.016Z,97346.00
2019-01-20T18:39:48.196Z,97344.00
2019-01-20T18:42:41.285Z,97348.00
2019-01-20T18:45:35.045Z,97350.00
2019-01-20T18:48:27.873Z,97350.00
2019-01-20T18:51:21.116Z,97353.00
2019-01-20T18:54:13.932Z,97362.00
2019-01-20T18:57:06.953Z,97355.00
2019-01-20T19:00:00.025Z,97361.00
2019-01-20T19:02:53.418Z,97364.00
2019-01-20T19:05:46.489Z,97366.00
2019-01-20T19:08:39.648Z,97369.00
2019-01-20T19:11:32.711Z,97369.00
2019-01-20T19:14:26.149Z,97375.00
2019-01-20T19:17:19.404Z,97375.00
2019-01-20T19:20:17.125Z,97376.00
2019-01-20T19:23:09.544Z,97379.00
2019-01-20T19:26:02.984Z,97374.00
2019-01-20T19:29:02.747Z,97375.00
2019-01-20T19:31:50.923Z,97383.00
2019-01-20T19:34:44.273Z,97378.00
2019-01-20T19:37:36.778Z,97376.00
2019-01-20T19:40:49.524Z,97381.00
2019-01-20T19:43:42.818Z,97382.00
2019-01-20T19:46:35.536Z,97384.00
2019-01-20T19:49:28.709Z,97392.00
2019-01-20T19:52:22.097Z,97399.00
2019-01-20T19:55:24.459Z,97393.00
2019-01-20T19:58:17.417Z,97407.00
2019-01-20T20:01:10.160Z,97405.00
2019-01-20T20:04:03.375Z,97410.00
2019-01-20T20:06:56.286Z,97410.00
2019-01-20T20:09:49.538Z,97416.00
2019-01-20T20:12:42.663Z,97419.00
2019-01-20T20:15:35.505Z,97429.00
2019-01-20T20:18:28.726Z,97424.00
2019-01-20T20:21:22.035Z,97426.00
2019-01-20T20:24:15.127Z,97425.00
2019-01-20T20:27:08.152Z,97432.00
2019-01-20T20:30:01.254Z,97437.00
2019-01-20T20:32:54.389Z,97443.00
2019-01-20T20:35:47.274Z,97435.00
2019-01-20T20:38:40.572Z,97437.00
2019-01-20T20:41:34.007Z,97440.00
2019-01-20T20:44:27.509Z,97450.00
2019-01-20T20:47:20.575Z,97443.00
2019-01-20T20:50:16.368Z,97452.00
2019-01-20T20:53:09.513Z,97455.00
2019-01-20T20:56:02.716Z,97463.00
2019-01-20T20:58:56.016Z,97470.00
2019-01-20T21:01:48.734Z,97466.00
2019-01-20T21:04:41.723Z,97464.00
2019-01-20T21:07:34.727Z,97474.00
2019-01-20T21:10:28.099Z,97471.00
2019-01-20T21:13:21.259Z,97470.00
2019-01-20T21:16:14.700Z,97474.00
2019-01-20T21:19:07.891Z,97470.00
2019-01-20T21:22:00.826Z,97469.00
2019-01-20T21:24:53.871Z,97470.00
2019-01-20T21:27:46.826Z,97480.00
2019-01-20T21:30:39.764Z,97481.00
2019-01-20T21:33:33.009Z,97474.00
2019-01-20T21:36:26.297Z,97473.00
2019-01-20T21:39:19.590Z,97479.00
2019-01-20T21:42:12.929Z,97484.00
2019-01-20T21:45:09.378Z,97481.00
2019-01-20T21:48:02.059Z,97480.00
2019-01-20T21:50:55.498Z,97489.00
2019-01-20T21:53:48.266Z,97483.00
2019-01-20T21:56:41.276Z,97490.00
2019-01-20T21:59:34.273Z,97498.00
2019-01-20T22:02:27.204Z,97492.00
2019-01-20T22:05:20.531Z,97495.00
2019-01-20T22:08:13.568Z,97493.00
2019-01-20T22:11:08.336Z,97498.00
2019-01-20T22:14:01.210Z,97503.00
2019-01-20T22:16:54.362Z,97504.00
2019-01-20T22:19:47.398Z,97511.00
2019-01-20T22:22:40.731Z,97514.00
2019-01-20T22:25:33.880Z,97510.00
2019-01-20T22:28:27.033Z,97509.00
2019-01-20T22:31:19.677Z,97525.00
2019-01-20T22:34:13.032Z,97519.00
2019-01-20T22:37:05.974Z,97519.00
